Check out our new PWSWeather beta!
PWSweather.com
Personal Weather Stations
Station Observations
LONGSUTTON
Long SuttonGB

Long SuttonGB

Lat: 52.776537, Lon: 0.113883

Elevation: 30

Station Type: Davis Vantage Pro 2

http://www.wx-watch.co.uk

Latest ConditionsUpdated 5:51:51 PM GMT Monday, Feb 24, 2020
Currently Today's Max Today's Min Today's Average
Temperature 52.6°F11.4°C 55.9°F13.3°C 38.8°F3.8°C 46.1°F7.8°C
Dew Point 39.5°F4.2°C 44.7°F7.1°C 26.0°F-3.3°C 35.9°F2.2°C
Winds 11.0 mph SW17.7 kmh SW 19.0 mph -30.6 kmh - - 7.1 mph 11.4 kmh
Wind Gusts 18.0 mph29.0 kmh 27.0 mph43.5 kmh - -
Humidity 61% 77% 57% 68%
Pressure 29.55 in1000.7 mb 30.25 in1024.4 mb 29.53 in1000.0 mb -
Precipitation - 0.19 in4.8 mm - -
Hour Temp Dew Point Humidity Winds Wind Gusts Pressure Precip Precip Rate Daily Precip Total
05:51 PM 52.6°F11.4°C 39.5°F4.2°C 61% 11.0 mph SW17.7 kmh SW 18.0 mph29.0 kmh 29.55 in1000.7 mb 0.00 in0.0 mm 0.00 in0.0 mm 0.19 in4.8 mm
05:46 PM 52.7°F11.5°C 40.0°F4.4°C 62% 5.0 mph SSW8.0 kmh SSW 18.0 mph29.0 kmh 29.55 in1000.7 mb 0.00 in0.0 mm 0.00 in0.0 mm 0.19 in4.8 mm
05:41 PM 52.7°F11.5°C 40.9°F4.9°C 64% 7.0 mph SW11.3 kmh SW 17.0 mph27.4 kmh 29.55 in1000.7 mb 0.00 in0.0 mm 0.00 in0.0 mm 0.19 in4.8 mm
05:36 PM 52.7°F11.5°C 40.9°F4.9°C 64% 8.0 mph WSW12.9 kmh WSW 19.0 mph30.6 kmh 29.54 in1000.3 mb 0.00 in0.0 mm 0.00 in0.0 mm 0.19 in4.8 mm
05:31 PM 52.9°F11.6°C 41.1°F5.1°C 64% 11.0 mph SW17.7 kmh SW 19.0 mph30.6 kmh 29.54 in1000.3 mb 0.00 in0.0 mm 0.00 in0.0 mm 0.19 in4.8 mm
05:26 PM 53.1°F11.7°C 41.2°F5.1°C 64% 10.0 mph WSW16.1 kmh WSW 20.0 mph32.2 kmh 29.54 in1000.3 mb 0.00 in0.0 mm 0.00 in0.0 mm 0.19 in4.8 mm
05:21 PM 53.3°F11.8°C 41.4°F5.2°C 64% 16.0 mph SW25.7 kmh SW 20.0 mph32.2 kmh 29.54 in1000.3 mb 0.00 in0.0 mm 0.00 in0.0 mm 0.19 in4.8 mm
05:16 PM 53.3°F11.8°C 41.4°F5.2°C 64% 8.0 mph WSW12.9 kmh WSW 22.0 mph35.4 kmh 29.54 in1000.3 mb 0.00 in0.0 mm 0.00 in0.0 mm 0.19 in4.8 mm
05:11 PM 53.5°F11.9°C 41.6°F5.3°C 64% 13.0 mph SW20.9 kmh SW 22.0 mph35.4 kmh 29.53 in1000.0 mb 0.00 in0.0 mm 0.00 in0.0 mm 0.19 in4.8 mm
05:06 PM 53.7°F12.1°C 41.8°F5.4°C 64% 7.0 mph SW11.3 kmh SW 22.0 mph35.4 kmh 29.53 in1000.0 mb 0.00 in0.0 mm 0.00 in0.0 mm 0.19 in4.8 mm
05:01 PM 53.9°F12.2°C 41.6°F5.3°C 63% 9.0 mph SW14.5 kmh SW 22.0 mph35.4 kmh 29.53 in1000.0 mb 0.00 in0.0 mm 0.00 in0.0 mm 0.19 in4.8 mm
04:56 PM 53.9°F12.2°C 41.6°F5.3°C 63% 11.0 mph W17.7 kmh W 22.0 mph35.4 kmh 29.53 in1000.0 mb 0.00 in0.0 mm 0.00 in0.0 mm 0.19 in4.8 mm
04:51 PM 54.0°F12.2°C 42.1°F5.6°C 64% 7.0 mph WSW11.3 kmh WSW 22.0 mph35.4 kmh 29.53 in1000.0 mb 0.00 in0.0 mm 0.00 in0.0 mm 0.19 in4.8 mm
04:46 PM 54.0°F12.2°C 42.1°F5.6°C 64% 14.0 mph SW22.5 kmh SW 22.0 mph35.4 kmh 29.53 in1000.0 mb 0.00 in0.0 mm 0.00 in0.0 mm 0.19 in4.8 mm
04:41 PM 54.0°F12.2°C 42.5°F5.8°C 65% 8.0 mph SW12.9 kmh SW 27.0 mph43.5 kmh 29.53 in1000.0 mb 0.00 in0.0 mm 0.00 in0.0 mm 0.19 in4.8 mm
04:36 PM 54.1°F12.3°C 43.0°F6.1°C 66% 9.0 mph SW14.5 kmh SW 27.0 mph43.5 kmh 29.53 in1000.0 mb 0.00 in0.0 mm 0.00 in0.0 mm 0.19 in4.8 mm
04:31 PM 54.3°F12.4°C 43.2°F6.2°C 66% 8.0 mph SSW12.9 kmh SSW 27.0 mph43.5 kmh 29.54 in1000.3 mb 0.00 in0.0 mm 0.00 in0.0 mm 0.19 in4.8 mm
04:26 PM 54.4°F12.4°C 43.3°F6.3°C 66% 17.0 mph SW27.4 kmh SW 27.0 mph43.5 kmh 29.54 in1000.3 mb 0.00 in0.0 mm 0.00 in0.0 mm 0.19 in4.8 mm
04:21 PM 54.4°F12.4°C 43.3°F6.3°C 66% 7.0 mph SW11.3 kmh SW 20.0 mph32.2 kmh 29.53 in1000.0 mb 0.00 in0.0 mm 0.00 in0.0 mm 0.19 in4.8 mm
04:16 PM 54.5°F12.5°C 43.4°F6.3°C 66% 10.0 mph SW16.1 kmh SW 22.0 mph35.4 kmh 29.54 in1000.3 mb 0.00 in0.0 mm 0.00 in0.0 mm 0.19 in4.8 mm
04:11 PM 54.6°F12.6°C 43.5°F6.4°C 66% 12.0 mph S19.3 kmh S 22.0 mph35.4 kmh 29.54 in1000.3 mb 0.00 in0.0 mm 0.00 in0.0 mm 0.19 in4.8 mm
04:06 PM 54.8°F12.7°C 43.7°F6.5°C 66% 12.0 mph SSW19.3 kmh SSW 23.0 mph37.0 kmh 29.54 in1000.3 mb 0.00 in0.0 mm 0.00 in0.0 mm 0.19 in4.8 mm
04:01 PM 55.0°F12.8°C 43.9°F6.6°C 66% 4.0 mph SW6.4 kmh SW 23.0 mph37.0 kmh 29.54 in1000.3 mb 0.00 in0.0 mm 0.00 in0.0 mm 0.19 in4.8 mm
03:56 PM 55.1°F12.8°C 43.9°F6.6°C 66% 13.0 mph SW20.9 kmh SW 23.0 mph37.0 kmh 29.54 in1000.3 mb 0.00 in0.0 mm 0.00 in0.0 mm 0.19 in4.8 mm
03:51 PM 55.2°F12.9°C 44.0°F6.7°C 66% 13.0 mph SW20.9 kmh SW 23.0 mph37.0 kmh 29.54 in1000.3 mb 0.00 in0.0 mm 0.00 in0.0 mm 0.19 in4.8 mm
03:46 PM 55.4°F13.0°C 43.8°F6.6°C 65% 16.0 mph SW25.7 kmh SW 22.0 mph35.4 kmh 29.54 in1000.3 mb 0.00 in0.0 mm 0.00 in0.0 mm 0.19 in4.8 mm
03:41 PM 55.6°F13.1°C 44.0°F6.7°C 65% 11.0 mph WSW17.7 kmh WSW 22.0 mph35.4 kmh 29.54 in1000.3 mb 0.00 in0.0 mm 0.00 in0.0 mm 0.19 in4.8 mm
03:36 PM 55.6°F13.1°C 44.0°F6.7°C 65% 12.0 mph SSW19.3 kmh SSW 22.0 mph35.4 kmh 29.54 in1000.3 mb 0.00 in0.0 mm 0.00 in0.0 mm 0.19 in4.8 mm
03:31 PM 55.6°F13.1°C 44.4°F6.9°C 66% 5.0 mph WSW8.0 kmh WSW 22.0 mph35.4 kmh 29.54 in1000.3 mb 0.00 in0.0 mm 0.00 in0.0 mm 0.19 in4.8 mm
03:26 PM 55.7°F13.2°C 44.1°F6.7°C 65% 5.0 mph SW8.0 kmh SW 21.0 mph33.8 kmh 29.54 in1000.3 mb 0.00 in0.0 mm 0.00 in0.0 mm 0.19 in4.8 mm
03:21 PM 55.7°F13.2°C 44.1°F6.7°C 65% 6.0 mph SW9.7 kmh SW 20.0 mph32.2 kmh 29.54 in1000.3 mb 0.00 in0.0 mm 0.00 in0.0 mm 0.19 in4.8 mm
03:16 PM 55.9°F13.3°C 44.7°F7.1°C 66% 10.0 mph WSW16.1 kmh WSW 20.0 mph32.2 kmh 29.54 in1000.3 mb 0.00 in0.0 mm 0.00 in0.0 mm 0.19 in4.8 mm
03:11 PM 55.8°F13.2°C 44.6°F7.0°C 66% 5.0 mph SW8.0 kmh SW 20.0 mph32.2 kmh 29.54 in1000.3 mb 0.00 in0.0 mm 0.00 in0.0 mm 0.19 in4.8 mm
03:06 PM 55.6°F13.1°C 44.4°F6.9°C 66% 9.0 mph SSW14.5 kmh SSW 20.0 mph32.2 kmh 29.55 in1000.7 mb 0.00 in0.0 mm 0.00 in0.0 mm 0.19 in4.8 mm
03:01 PM 55.3°F12.9°C 44.5°F6.9°C 67% 13.0 mph SW20.9 kmh SW 20.0 mph32.2 kmh 29.54 in1000.3 mb 0.00 in0.0 mm 0.00 in0.0 mm 0.19 in4.8 mm
02:56 PM 55.1°F12.8°C 44.3°F6.8°C 67% 7.0 mph SSW11.3 kmh SSW 21.0 mph33.8 kmh 29.55 in1000.7 mb 0.00 in0.0 mm 0.00 in0.0 mm 0.19 in4.8 mm
02:51 PM 54.9°F12.7°C 44.1°F6.7°C 67% 8.0 mph SSW12.9 kmh SSW 21.0 mph33.8 kmh 29.55 in1000.7 mb 0.00 in0.0 mm 0.00 in0.0 mm 0.19 in4.8 mm
02:46 PM 54.9°F12.7°C 44.1°F6.7°C 67% 6.0 mph SW9.7 kmh SW 21.0 mph33.8 kmh 29.55 in1000.7 mb 0.00 in0.0 mm 0.00 in0.0 mm 0.19 in4.8 mm
02:41 PM 54.7°F12.6°C 44.3°F6.8°C 68% 11.0 mph SSW17.7 kmh SSW 21.0 mph33.8 kmh 29.55 in1000.7 mb 0.00 in0.0 mm 0.00 in0.0 mm 0.19 in4.8 mm
02:36 PM 54.5°F12.5°C 44.2°F6.8°C 68% 15.0 mph SW24.1 kmh SW 21.0 mph33.8 kmh 29.55 in1000.7 mb 0.00 in0.0 mm 0.00 in0.0 mm 0.19 in4.8 mm
02:31 PM 54.3°F12.4°C 44.0°F6.7°C 68% 9.0 mph SSW14.5 kmh SSW 26.0 mph41.8 kmh 29.55 in1000.7 mb 0.00 in0.0 mm 0.00 in0.0 mm 0.19 in4.8 mm
02:26 PM 54.2°F12.3°C 44.3°F6.8°C 69% 6.0 mph SW9.7 kmh SW 26.0 mph41.8 kmh 29.55 in1000.7 mb 0.00 in0.0 mm 0.00 in0.0 mm 0.19 in4.8 mm
02:21 PM 54.0°F12.2°C 44.1°F6.7°C 69% 13.0 mph SSW20.9 kmh SSW 26.0 mph41.8 kmh 29.56 in1001.0 mb 0.00 in0.0 mm 0.00 in0.0 mm 0.19 in4.8 mm
02:16 PM 54.0°F12.2°C 44.1°F6.7°C 69% 7.0 mph SSW11.3 kmh SSW 26.0 mph41.8 kmh 29.56 in1001.0 mb 0.00 in0.0 mm 0.00 in0.0 mm 0.19 in4.8 mm
02:11 PM 54.0°F12.2°C 44.1°F6.7°C 69% 6.0 mph WSW9.7 kmh WSW 21.0 mph33.8 kmh 29.56 in1001.0 mb 0.00 in0.0 mm 0.00 in0.0 mm 0.19 in4.8 mm
02:06 PM 54.0°F12.2°C 44.1°F6.7°C 69% 11.0 mph SW17.7 kmh SW 21.0 mph33.8 kmh 29.56 in1001.0 mb 0.00 in0.0 mm 0.00 in0.0 mm 0.19 in4.8 mm
02:01 PM 53.9°F12.2°C 44.0°F6.7°C 69% 8.0 mph SSW12.9 kmh SSW 22.0 mph35.4 kmh 29.56 in1001.0 mb 0.00 in0.0 mm 0.00 in0.0 mm 0.19 in4.8 mm
01:56 PM 54.0°F12.2°C 44.1°F6.7°C 69% 12.0 mph S19.3 kmh S 22.0 mph35.4 kmh 29.57 in1001.4 mb 0.00 in0.0 mm 0.00 in0.0 mm 0.19 in4.8 mm
01:51 PM 54.1°F12.3°C 44.2°F6.8°C 69% 8.0 mph S12.9 kmh S 25.0 mph40.2 kmh 29.57 in1001.4 mb 0.00 in0.0 mm 0.00 in0.0 mm 0.19 in4.8 mm
01:46 PM 54.1°F12.3°C 44.2°F6.8°C 69% 13.0 mph SW20.9 kmh SW 25.0 mph40.2 kmh 29.57 in1001.4 mb 0.00 in0.0 mm 0.00 in0.0 mm 0.19 in4.8 mm
01:41 PM 54.1°F12.3°C 44.2°F6.8°C 69% 7.0 mph SW11.3 kmh SW 25.0 mph40.2 kmh 29.57 in1001.4 mb 0.00 in0.0 mm 0.00 in0.0 mm 0.19 in4.8 mm
01:36 PM 54.0°F12.2°C 44.1°F6.7°C 69% 13.0 mph S20.9 kmh S 25.0 mph40.2 kmh 29.57 in1001.4 mb 0.00 in0.0 mm 0.00 in0.0 mm 0.19 in4.8 mm
01:31 PM 53.9°F12.2°C 44.3°F6.8°C 70% 5.0 mph WSW8.0 kmh WSW 25.0 mph40.2 kmh 29.58 in1001.7 mb 0.00 in0.0 mm 0.00 in0.0 mm 0.19 in4.8 mm
01:26 PM 53.7°F12.1°C 44.2°F6.8°C 70% 18.0 mph SW29.0 kmh SW 25.0 mph40.2 kmh 29.58 in1001.7 mb 0.00 in0.0 mm 0.00 in0.0 mm 0.19 in4.8 mm
01:21 PM 53.4°F11.9°C 44.2°F6.8°C 71% 7.0 mph SW11.3 kmh SW 25.0 mph40.2 kmh 29.59 in1002.0 mb 0.00 in0.0 mm 0.00 in0.0 mm 0.19 in4.8 mm
01:16 PM 53.0°F11.7°C 43.9°F6.6°C 71% 16.0 mph SW25.7 kmh SW 25.0 mph40.2 kmh 29.59 in1002.0 mb 0.00 in0.0 mm 0.00 in0.0 mm 0.19 in4.8 mm
01:11 PM 53.0°F11.7°C 43.9°F6.6°C 71% 15.0 mph SW24.1 kmh SW 25.0 mph40.2 kmh 29.58 in1001.7 mb 0.00 in0.0 mm 0.00 in0.0 mm 0.19 in4.8 mm
01:06 PM 52.9°F11.6°C 43.8°F6.6°C 71% 18.0 mph SW29.0 kmh SW 25.0 mph40.2 kmh 29.59 in1002.0 mb 0.00 in0.0 mm 0.00 in0.0 mm 0.19 in4.8 mm
01:01 PM 52.8°F11.6°C 43.7°F6.5°C 71% 7.0 mph W11.3 kmh W 22.0 mph35.4 kmh 29.59 in1002.0 mb 0.00 in0.0 mm 0.00 in0.0 mm 0.19 in4.8 mm
12:56 PM 52.7°F11.5°C 43.9°F6.6°C 72% 5.0 mph SW8.0 kmh SW 24.0 mph38.6 kmh 29.60 in1002.4 mb 0.00 in0.0 mm 0.00 in0.0 mm 0.19 in4.8 mm
12:51 PM 52.5°F11.4°C 43.7°F6.5°C 72% 14.0 mph SSW22.5 kmh SSW 24.0 mph38.6 kmh 29.60 in1002.4 mb 0.00 in0.0 mm 0.00 in0.0 mm 0.19 in4.8 mm
12:46 PM 52.4°F11.3°C 43.6°F6.4°C 72% 10.0 mph S16.1 kmh S 27.0 mph43.5 kmh 29.60 in1002.4 mb 0.00 in0.0 mm 0.00 in0.0 mm 0.19 in4.8 mm
12:41 PM 52.2°F11.2°C 43.4°F6.3°C 72% 9.0 mph SW14.5 kmh SW 27.0 mph43.5 kmh 29.60 in1002.4 mb 0.00 in0.0 mm 0.00 in0.0 mm 0.19 in4.8 mm
12:36 PM 52.0°F11.1°C 43.3°F6.3°C 72% 12.0 mph SW19.3 kmh SW 27.0 mph43.5 kmh 29.61 in1002.7 mb 0.00 in0.0 mm 0.00 in0.0 mm 0.19 in4.8 mm
12:31 PM 51.9°F11.1°C 43.2°F6.2°C 72% 14.0 mph SSW22.5 kmh SSW 27.0 mph43.5 kmh 29.61 in1002.7 mb 0.00 in0.0 mm 0.00 in0.0 mm 0.19 in4.8 mm
12:26 PM 51.8°F11.0°C 43.4°F6.3°C 73% 13.0 mph SSW20.9 kmh SSW 25.0 mph40.2 kmh 29.61 in1002.7 mb 0.00 in0.0 mm 0.00 in0.0 mm 0.19 in4.8 mm
12:21 PM 51.6°F10.9°C 43.2°F6.2°C 73% 14.0 mph SW22.5 kmh SW 25.0 mph40.2 kmh 29.61 in1002.7 mb 0.00 in0.0 mm 0.00 in0.0 mm 0.19 in4.8 mm
12:16 PM 51.4°F10.8°C 43.0°F6.1°C 73% 15.0 mph SW24.1 kmh SW 26.0 mph41.8 kmh 29.60 in1002.4 mb 0.00 in0.0 mm 0.00 in0.0 mm 0.19 in4.8 mm
12:11 PM 51.3°F10.7°C 42.9°F6.1°C 73% 13.0 mph S20.9 kmh S 26.0 mph41.8 kmh 29.61 in1002.7 mb 0.00 in0.0 mm 0.00 in0.0 mm 0.19 in4.8 mm
12:06 PM 51.3°F10.7°C 42.9°F6.1°C 73% 13.0 mph S20.9 kmh S 26.0 mph41.8 kmh 29.61 in1002.7 mb 0.00 in0.0 mm 0.00 in0.0 mm 0.19 in4.8 mm
12:01 PM 51.2°F10.7°C 42.8°F6.0°C 73% 10.0 mph SW16.1 kmh SW 26.0 mph41.8 kmh 29.62 in1003.0 mb 0.00 in0.0 mm 0.00 in0.0 mm 0.19 in4.8 mm
11:56 AM 51.1°F10.6°C 43.1°F6.2°C 74% 7.0 mph S11.3 kmh S 25.0 mph40.2 kmh 29.62 in1003.0 mb 0.00 in0.0 mm 0.00 in0.0 mm 0.19 in4.8 mm
11:51 AM 50.9°F10.5°C 42.9°F6.1°C 74% 16.0 mph SW25.7 kmh SW 25.0 mph40.2 kmh 29.63 in1003.4 mb 0.00 in0.0 mm 0.00 in0.0 mm 0.19 in4.8 mm
11:46 AM 50.8°F10.4°C 42.8°F6.0°C 74% 19.0 mph SW30.6 kmh SW 22.0 mph35.4 kmh 29.63 in1003.4 mb 0.00 in0.0 mm 0.00 in0.0 mm 0.19 in4.8 mm
11:41 AM 50.7°F10.4°C 42.7°F5.9°C 74% 7.0 mph SSW11.3 kmh SSW 23.0 mph37.0 kmh 29.63 in1003.4 mb 0.00 in0.0 mm 0.00 in0.0 mm 0.19 in4.8 mm
11:36 AM 50.6°F10.3°C 42.6°F5.9°C 74% 8.0 mph SW12.9 kmh SW 23.0 mph37.0 kmh 29.63 in1003.4 mb 0.00 in0.0 mm 0.00 in0.0 mm 0.18 in4.6 mm
11:31 AM 50.5°F10.3°C 42.5°F5.8°C 74% 7.0 mph SW11.3 kmh SW 23.0 mph37.0 kmh 29.64 in1003.7 mb 0.04 in1.0 mm 0.00 in0.0 mm 0.18 in4.6 mm
11:26 AM 50.4°F10.2°C 42.8°F6.0°C 75% 14.0 mph SW22.5 kmh SW 23.0 mph37.0 kmh 29.64 in1003.7 mb 0.04 in1.0 mm 0.00 in0.0 mm 0.18 in4.6 mm
11:21 AM 50.2°F10.1°C 42.6°F5.9°C 75% 9.0 mph SW14.5 kmh SW 19.0 mph30.6 kmh 29.65 in1004.1 mb 0.04 in1.0 mm 0.12 in3.0 mm 0.18 in4.6 mm
11:16 AM 50.1°F10.1°C 42.5°F5.8°C 75% 8.0 mph S12.9 kmh S 23.0 mph37.0 kmh 29.65 in1004.1 mb 0.03 in0.8 mm 0.00 in0.0 mm 0.17 in4.3 mm
11:11 AM 50.1°F10.1°C 42.5°F5.8°C 75% 10.0 mph SSW16.1 kmh SSW 23.0 mph37.0 kmh 29.65 in1004.1 mb 0.03 in0.8 mm 0.00 in0.0 mm 0.17 in4.3 mm
11:06 AM 50.0°F10.0°C 42.4°F5.8°C 75% 13.0 mph SW20.9 kmh SW 23.0 mph37.0 kmh 29.65 in1004.1 mb 0.03 in0.8 mm 0.00 in0.0 mm 0.17 in4.3 mm
11:01 AM 49.9°F9.9°C 42.3°F5.7°C 75% 6.0 mph SW9.7 kmh SW 23.0 mph37.0 kmh 29.66 in1004.4 mb 0.03 in0.8 mm 0.00 in0.0 mm 0.17 in4.3 mm
10:56 AM 49.9°F9.9°C 42.3°F5.7°C 75% 6.0 mph SW9.7 kmh SW 23.0 mph37.0 kmh 29.66 in1004.4 mb 0.03 in0.8 mm 0.00 in0.0 mm 0.17 in4.3 mm
10:51 AM 49.8°F9.9°C 42.2°F5.7°C 75% 9.0 mph SW14.5 kmh SW 23.0 mph37.0 kmh 29.66 in1004.4 mb 0.03 in0.8 mm 0.00 in0.0 mm 0.16 in4.1 mm
10:46 AM 49.7°F9.8°C 42.1°F5.6°C 75% 7.0 mph SSW11.3 kmh SSW 23.0 mph37.0 kmh 29.67 in1004.7 mb 0.05 in1.3 mm 0.00 in0.0 mm 0.16 in4.1 mm
10:41 AM 49.6°F9.8°C 42.3°F5.7°C 76% 10.0 mph S16.1 kmh S 23.0 mph37.0 kmh 29.67 in1004.7 mb 0.05 in1.3 mm 0.00 in0.0 mm 0.16 in4.1 mm
10:36 AM 49.5°F9.7°C 42.3°F5.7°C 76% 7.0 mph SSW11.3 kmh SSW 20.0 mph32.2 kmh 29.67 in1004.7 mb 0.06 in1.5 mm 0.00 in0.0 mm 0.15 in3.8 mm
10:31 AM 49.4°F9.7°C 42.2°F5.7°C 76% 11.0 mph SW17.7 kmh SW 20.0 mph32.2 kmh 29.68 in1005.1 mb 0.06 in1.5 mm 0.00 in0.0 mm 0.15 in3.8 mm
10:26 AM 49.2°F9.6°C 42.0°F5.6°C 76% 13.0 mph S20.9 kmh S 20.0 mph32.2 kmh 29.68 in1005.1 mb 0.08 in2.0 mm 0.00 in0.0 mm 0.14 in3.6 mm
10:21 AM 49.0°F9.4°C 41.8°F5.4°C 76% 8.0 mph SSW12.9 kmh SSW 20.0 mph32.2 kmh 29.68 in1005.1 mb 0.11 in2.8 mm 0.48 in12.2 mm 0.14 in3.6 mm
10:16 AM 48.7°F9.3°C 41.5°F5.3°C 76% 11.0 mph SSW17.7 kmh SSW 20.0 mph32.2 kmh 29.69 in1005.4 mb 0.07 in1.8 mm 0.00 in0.0 mm 0.13 in3.3 mm
10:11 AM 48.5°F9.2°C 41.3°F5.2°C 76% 8.0 mph SSW12.9 kmh SSW 20.0 mph32.2 kmh 29.69 in1005.4 mb 0.07 in1.8 mm 0.24 in6.1 mm 0.13 in3.3 mm
10:06 AM 48.3°F9.1°C 41.1°F5.1°C 76% 9.0 mph S14.5 kmh S 19.0 mph30.6 kmh 29.69 in1005.4 mb 0.05 in1.3 mm 0.12 in3.0 mm 0.12 in3.0 mm
10:01 AM 48.0°F8.9°C 40.8°F4.9°C 76% 12.0 mph SSE19.3 kmh SSE 18.0 mph29.0 kmh 29.69 in1005.4 mb 0.04 in1.0 mm 0.00 in0.0 mm 0.11 in2.8 mm
09:56 AM 47.9°F8.8°C 40.7°F4.8°C 76% 15.0 mph SW24.1 kmh SW 20.0 mph32.2 kmh 29.70 in1005.8 mb 0.04 in1.0 mm 0.48 in12.2 mm 0.11 in2.8 mm
09:51 AM 47.6°F8.7°C 40.4°F4.7°C 76% 6.0 mph S9.7 kmh S 20.0 mph32.2 kmh 29.70 in1005.8 mb 0.00 in0.0 mm 0.00 in0.0 mm 0.10 in2.5 mm
09:46 AM 47.6°F8.7°C 40.4°F4.7°C 76% 8.0 mph SSE12.9 kmh SSE 20.0 mph32.2 kmh 29.70 in1005.8 mb 0.00 in0.0 mm 0.00 in0.0 mm 0.10 in2.5 mm
09:41 AM 47.3°F8.5°C 40.5°F4.7°C 77% 8.0 mph SSE12.9 kmh SSE 20.0 mph32.2 kmh 29.70 in1005.8 mb 0.00 in0.0 mm 0.00 in0.0 mm 0.09 in2.3 mm
09:36 AM 47.2°F8.4°C 40.0°F4.4°C 76% 9.0 mph S14.5 kmh S 18.0 mph29.0 kmh 29.71 in1006.1 mb 0.00 in0.0 mm 0.00 in0.0 mm 0.09 in2.3 mm
09:31 AM 46.9°F8.3°C 39.7°F4.3°C 76% 9.0 mph S14.5 kmh S 21.0 mph33.8 kmh 29.71 in1006.1 mb 0.03 in0.8 mm 0.00 in0.0 mm 0.09 in2.3 mm
09:26 AM 46.8°F8.2°C 39.6°F4.2°C 76% 7.0 mph S11.3 kmh S 21.0 mph33.8 kmh 29.71 in1006.1 mb 0.04 in1.0 mm 0.00 in0.0 mm 0.09 in2.3 mm
09:21 AM 46.6°F8.1°C 39.8°F4.3°C 77% 15.0 mph SSE24.1 kmh SSE 21.0 mph33.8 kmh 29.71 in1006.1 mb 0.04 in1.0 mm 0.00 in0.0 mm 0.09 in2.3 mm
09:16 AM 46.3°F7.9°C 39.5°F4.2°C 77% 12.0 mph SSE19.3 kmh SSE 21.0 mph33.8 kmh 29.72 in1006.4 mb 0.05 in1.3 mm 0.00 in0.0 mm 0.09 in2.3 mm
09:11 AM 46.1°F7.8°C 39.3°F4.1°C 77% 7.0 mph S11.3 kmh S 17.0 mph27.4 kmh 29.72 in1006.4 mb 0.06 in1.5 mm 0.00 in0.0 mm 0.09 in2.3 mm
09:06 AM 45.6°F7.6°C 38.8°F3.8°C 77% 7.0 mph SSW11.3 kmh SSW 19.0 mph30.6 kmh 29.73 in1006.8 mb 0.06 in1.5 mm 0.00 in0.0 mm 0.09 in2.3 mm
09:01 AM 45.2°F7.3°C 38.4°F3.6°C 77% 11.0 mph S17.7 kmh S 19.0 mph30.6 kmh 29.73 in1006.8 mb 0.06 in1.5 mm 0.02 in0.5 mm 0.08 in2.0 mm
08:56 AM 44.9°F7.2°C 38.1°F3.4°C 77% 11.0 mph S17.7 kmh S 22.0 mph35.4 kmh 29.74 in1007.1 mb 0.04 in1.0 mm 0.00 in0.0 mm 0.07 in1.8 mm
08:51 AM 44.6°F7.0°C 37.8°F3.2°C 77% 8.0 mph SE12.9 kmh SE 22.0 mph35.4 kmh 29.74 in1007.1 mb 0.04 in1.0 mm 0.48 in12.2 mm 0.07 in1.8 mm
08:46 AM 44.5°F6.9°C 37.7°F3.2°C 77% 4.0 mph SE6.4 kmh SE 22.0 mph35.4 kmh 29.74 in1007.1 mb 0.00 in0.0 mm 0.00 in0.0 mm 0.06 in1.5 mm
08:41 AM 44.2°F6.8°C 37.5°F3.1°C 77% 19.0 mph SSE30.6 kmh SSE 22.0 mph35.4 kmh 29.75 in1007.5 mb 0.00 in0.0 mm 0.00 in0.0 mm 0.06 in1.5 mm
08:36 AM 43.9°F6.6°C 37.2°F2.9°C 77% 10.0 mph S16.1 kmh S 17.0 mph27.4 kmh 29.75 in1007.5 mb 0.00 in0.0 mm 0.00 in0.0 mm 0.06 in1.5 mm
08:31 AM 43.7°F6.5°C 37.0°F2.8°C 77% 15.0 mph SSE24.1 kmh SSE 17.0 mph27.4 kmh 29.76 in1007.8 mb 0.00 in0.0 mm 0.00 in0.0 mm 0.06 in1.5 mm
08:26 AM 43.4°F6.3°C 36.7°F2.6°C 77% 6.0 mph S9.7 kmh S 17.0 mph27.4 kmh 29.76 in1007.8 mb 0.04 in1.0 mm 0.00 in0.0 mm 0.06 in1.5 mm
08:21 AM 43.3°F6.3°C 36.6°F2.6°C 77% 8.0 mph SSE12.9 kmh SSE 15.0 mph24.1 kmh 29.77 in1008.1 mb 0.04 in1.0 mm 0.00 in0.0 mm 0.06 in1.5 mm
08:16 AM 43.2°F6.2°C 36.5°F2.5°C 77% 7.0 mph S11.3 kmh S 15.0 mph24.1 kmh 29.78 in1008.5 mb 0.04 in1.0 mm 0.00 in0.0 mm 0.06 in1.5 mm
08:11 AM 42.9°F6.1°C 36.2°F2.3°C 77% 8.0 mph SSE12.9 kmh SSE 15.0 mph24.1 kmh 29.79 in1008.8 mb 0.06 in1.5 mm 0.00 in0.0 mm 0.05 in1.3 mm
08:06 AM 42.7°F5.9°C 36.0°F2.2°C 77% 4.0 mph S6.4 kmh S 15.0 mph24.1 kmh 29.79 in1008.8 mb 0.06 in1.5 mm 0.00 in0.0 mm 0.05 in1.3 mm
08:01 AM 42.4°F5.8°C 35.7°F2.1°C 77% 9.0 mph SE14.5 kmh SE 12.0 mph19.3 kmh 29.79 in1008.8 mb 0.06 in1.5 mm 0.00 in0.0 mm 0.04 in1.0 mm
07:56 AM 42.2°F5.7°C 35.5°F1.9°C 77% 7.0 mph SE11.3 kmh SE 16.0 mph25.7 kmh 29.79 in1008.8 mb 0.06 in1.5 mm 0.12 in3.0 mm 0.04 in1.0 mm
07:51 AM 41.9°F5.5°C 35.2°F1.8°C 77% 8.0 mph SE12.9 kmh SE 16.0 mph25.7 kmh 29.79 in1008.8 mb 0.05 in1.3 mm 0.00 in0.0 mm 0.03 in0.8 mm
07:46 AM 41.7°F5.4°C 35.0°F1.7°C 77% 8.0 mph SSE12.9 kmh SSE 16.0 mph25.7 kmh 29.80 in1009.1 mb 0.05 in1.3 mm 0.12 in3.0 mm 0.03 in0.8 mm
07:41 AM 41.6°F5.3°C 34.9°F1.6°C 77% 5.0 mph SE8.0 kmh SE 16.0 mph25.7 kmh 29.81 in1009.5 mb 0.04 in1.0 mm 0.00 in0.0 mm 0.02 in0.5 mm
07:36 AM 41.4°F5.2°C 34.7°F1.5°C 77% 6.0 mph S9.7 kmh S 16.0 mph25.7 kmh 29.82 in1009.8 mb 0.04 in1.0 mm 0.12 in3.0 mm 0.02 in0.5 mm
07:31 AM 41.1°F5.1°C 34.4°F1.3°C 77% 5.0 mph S8.0 kmh S 16.0 mph25.7 kmh 29.83 in1010.2 mb 0.03 in0.8 mm 0.00 in0.0 mm 0.02 in0.5 mm
07:26 AM 40.9°F4.9°C 34.3°F1.3°C 77% 4.0 mph SE6.4 kmh SE 15.0 mph24.1 kmh 29.82 in1009.8 mb 0.03 in0.8 mm 0.36 in9.1 mm 0.02 in0.5 mm
07:21 AM 40.7°F4.8°C 34.1°F1.2°C 77% 10.0 mph SE16.1 kmh SE 14.0 mph22.5 kmh 29.84 in1010.5 mb 0.00 in0.0 mm 0.00 in0.0 mm 0.01 in0.3 mm
07:16 AM 40.4°F4.7°C 33.8°F1.0°C 77% 7.0 mph S11.3 kmh S 14.0 mph22.5 kmh 29.85 in1010.8 mb 0.00 in0.0 mm 0.00 in0.0 mm 0.01 in0.3 mm
07:11 AM 40.1°F4.5°C 33.5°F0.8°C 77% 6.0 mph SSE9.7 kmh SSE 14.0 mph22.5 kmh 29.86 in1011.2 mb 0.00 in0.0 mm 0.00 in0.0 mm 0.01 in0.3 mm
07:06 AM 39.9°F4.4°C 33.3°F0.7°C 77% 5.0 mph SSE8.0 kmh SSE 14.0 mph22.5 kmh 29.86 in1011.2 mb 0.00 in0.0 mm 0.00 in0.0 mm 0.01 in0.3 mm
07:01 AM 39.7°F4.3°C 33.1°F0.6°C 77% 5.0 mph SE8.0 kmh SE 14.0 mph22.5 kmh 29.87 in1011.5 mb 0.00 in0.0 mm 0.00 in0.0 mm 0.00 in0.0 mm
06:56 AM 39.6°F4.2°C 33.0°F0.6°C 77% 5.0 mph SE8.0 kmh SE 14.0 mph22.5 kmh 29.87 in1011.5 mb 0.00 in0.0 mm 0.00 in0.0 mm 0.00 in0.0 mm
06:51 AM 39.5°F4.2°C 32.9°F0.5°C 77% 7.0 mph SE11.3 kmh SE 14.0 mph22.5 kmh 29.87 in1011.5 mb 0.00 in0.0 mm 0.00 in0.0 mm 0.00 in0.0 mm
06:46 AM 39.4°F4.1°C 32.5°F0.3°C 76% 7.0 mph SE11.3 kmh SE 14.0 mph22.5 kmh 29.88 in1011.9 mb 0.00 in0.0 mm 0.00 in0.0 mm 0.00 in0.0 mm
06:41 AM 39.2°F4.0°C 32.3°F0.2°C 76% 8.0 mph E12.9 kmh E 14.0 mph22.5 kmh 29.90 in1012.5 mb 0.00 in0.0 mm 0.00 in0.0 mm 0.00 in0.0 mm
06:36 AM 39.2°F4.0°C 32.3°F0.2°C 76% 8.0 mph SE12.9 kmh SE 14.0 mph22.5 kmh 29.90 in1012.5 mb 0.00 in0.0 mm 0.00 in0.0 mm 0.00 in0.0 mm
06:31 AM 39.1°F3.9°C 31.9°F-0.1°C 75% 3.0 mph SE4.8 kmh SE 12.0 mph19.3 kmh 29.91 in1012.9 mb 0.00 in0.0 mm 0.00 in0.0 mm 0.00 in0.0 mm
06:26 AM 39.0°F3.9°C 31.8°F-0.1°C 75% 8.0 mph SE12.9 kmh SE 12.0 mph19.3 kmh 29.92 in1013.2 mb 0.00 in0.0 mm 0.00 in0.0 mm 0.00 in0.0 mm
06:21 AM 39.0°F3.9°C 31.4°F-0.3°C 74% 5.0 mph SSE8.0 kmh SSE 13.0 mph20.9 kmh 29.92 in1013.2 mb 0.00 in0.0 mm 0.00 in0.0 mm 0.00 in0.0 mm
06:16 AM 39.0°F3.9°C 31.1°F-0.5°C 73% 6.0 mph ESE9.7 kmh ESE 13.0 mph20.9 kmh 29.92 in1013.2 mb 0.00 in0.0 mm 0.00 in0.0 mm 0.00 in0.0 mm
06:11 AM 39.0°F3.9°C 30.8°F-0.7°C 72% 10.0 mph SE16.1 kmh SE 16.0 mph25.7 kmh 29.93 in1013.5 mb 0.00 in0.0 mm 0.00 in0.0 mm 0.00 in0.0 mm
06:06 AM 39.0°F3.9°C 30.1°F-1.1°C 70% 7.0 mph SSE11.3 kmh SSE 16.0 mph25.7 kmh 29.94 in1013.9 mb 0.00 in0.0 mm 0.00 in0.0 mm 0.00 in0.0 mm
06:01 AM 39.1°F3.9°C 29.4°F-1.4°C 68% 6.0 mph SE9.7 kmh SE 16.0 mph25.7 kmh 29.95 in1014.2 mb 0.00 in0.0 mm 0.00 in0.0 mm 0.00 in0.0 mm
05:56 AM 39.1°F3.9°C 29.1°F-1.6°C 67% 8.0 mph SE12.9 kmh SE 16.0 mph25.7 kmh 29.95 in1014.2 mb 0.00 in0.0 mm 0.00 in0.0 mm 0.00 in0.0 mm
05:51 AM 39.2°F4.0°C 28.8°F-1.8°C 66% 6.0 mph S9.7 kmh S 15.0 mph24.1 kmh 29.96 in1014.6 mb 0.00 in0.0 mm 0.00 in0.0 mm 0.00 in0.0 mm
05:46 AM 39.3°F4.1°C 28.5°F-1.9°C 65% 6.0 mph SSE9.7 kmh SSE 15.0 mph24.1 kmh 29.96 in1014.6 mb 0.00 in0.0 mm 0.00 in0.0 mm 0.00 in0.0 mm
05:41 AM 39.5°F4.2°C 28.3°F-2.1°C 64% 4.0 mph SE6.4 kmh SE 15.0 mph24.1 kmh 29.97 in1014.9 mb 0.00 in0.0 mm 0.00 in0.0 mm 0.00 in0.0 mm
05:36 AM 39.7°F4.3°C 28.5°F-1.9°C 64% 5.0 mph SE8.0 kmh SE 14.0 mph22.5 kmh 29.98 in1015.2 mb 0.00 in0.0 mm 0.00 in0.0 mm 0.00 in0.0 mm
05:31 AM 39.8°F4.3°C 28.2°F-2.1°C 63% 6.0 mph S9.7 kmh S 10.0 mph16.1 kmh 29.98 in1015.2 mb 0.00 in0.0 mm 0.00 in0.0 mm 0.00 in0.0 mm
05:26 AM 40.0°F4.4°C 27.7°F-2.4°C 61% 4.0 mph SE6.4 kmh SE 12.0 mph19.3 kmh 29.99 in1015.6 mb 0.00 in0.0 mm 0.00 in0.0 mm 0.00 in0.0 mm
05:21 AM 39.9°F4.4°C 27.6°F-2.4°C 61% 6.0 mph SE9.7 kmh SE 12.0 mph19.3 kmh 30.00 in1015.9 mb 0.00 in0.0 mm 0.00 in0.0 mm 0.00 in0.0 mm
05:16 AM 39.9°F4.4°C 27.2°F-2.7°C 60% 4.0 mph SE6.4 kmh SE 12.0 mph19.3 kmh 30.00 in1015.9 mb 0.00 in0.0 mm 0.00 in0.0 mm 0.00 in0.0 mm
05:11 AM 39.9°F4.4°C 27.2°F-2.7°C 60% 8.0 mph SSE12.9 kmh SSE 12.0 mph19.3 kmh 30.02 in1016.6 mb 0.00 in0.0 mm 0.00 in0.0 mm 0.00 in0.0 mm
05:06 AM 39.7°F4.3°C 27.0°F-2.8°C 60% 4.0 mph S6.4 kmh S 9.0 mph14.5 kmh 30.02 in1016.6 mb 0.00 in0.0 mm 0.00 in0.0 mm 0.00 in0.0 mm
05:01 AM 39.7°F4.3°C 27.4°F-2.6°C 61% 5.0 mph SSE8.0 kmh SSE 9.0 mph14.5 kmh 30.03 in1016.9 mb 0.00 in0.0 mm 0.00 in0.0 mm 0.00 in0.0 mm
04:56 AM 39.8°F4.3°C 27.1°F-2.7°C 60% 5.0 mph SE8.0 kmh SE 9.0 mph14.5 kmh 30.03 in1016.9 mb 0.00 in0.0 mm 0.00 in0.0 mm 0.00 in0.0 mm
04:51 AM 39.9°F4.4°C 26.7°F-2.9°C 59% 4.0 mph SE6.4 kmh SE 8.0 mph12.9 kmh 30.03 in1016.9 mb 0.00 in0.0 mm 0.00 in0.0 mm 0.00 in0.0 mm
04:46 AM 39.9°F4.4°C 26.3°F-3.2°C 58% 4.0 mph SE6.4 kmh SE 8.0 mph12.9 kmh 30.04 in1017.3 mb 0.00 in0.0 mm 0.00 in0.0 mm 0.00 in0.0 mm
04:41 AM 39.9°F4.4°C 26.3°F-3.2°C 58% 3.0 mph SE4.8 kmh SE 10.0 mph16.1 kmh 30.04 in1017.3 mb 0.00 in0.0 mm 0.00 in0.0 mm 0.00 in0.0 mm
04:36 AM 39.9°F4.4°C 26.7°F-2.9°C 59% 3.0 mph SE4.8 kmh SE 10.0 mph16.1 kmh 30.04 in1017.3 mb 0.00 in0.0 mm 0.00 in0.0 mm 0.00 in0.0 mm
04:31 AM 39.9°F4.4°C 26.7°F-2.9°C 59% 3.0 mph SE4.8 kmh SE 10.0 mph16.1 kmh 30.05 in1017.6 mb 0.00 in0.0 mm 0.00 in0.0 mm 0.00 in0.0 mm
04:26 AM 39.9°F4.4°C 26.3°F-3.2°C 58% 4.0 mph SE6.4 kmh SE 10.0 mph16.1 kmh 30.06 in1017.9 mb 0.00 in0.0 mm 0.00 in0.0 mm 0.00 in0.0 mm
04:21 AM 39.9°F4.4°C 26.7°F-2.9°C 59% 3.0 mph SE4.8 kmh SE 8.0 mph12.9 kmh 30.07 in1018.3 mb 0.00 in0.0 mm 0.00 in0.0 mm 0.00 in0.0 mm
04:16 AM 39.9°F4.4°C 26.7°F-2.9°C 59% 3.0 mph SSE4.8 kmh SSE 8.0 mph12.9 kmh 30.08 in1018.6 mb 0.00 in0.0 mm 0.00 in0.0 mm 0.00 in0.0 mm
04:11 AM 39.9°F4.4°C 26.7°F-2.9°C 59% 3.0 mph SSE4.8 kmh SSE 8.0 mph12.9 kmh 30.08 in1018.6 mb 0.00 in0.0 mm 0.00 in0.0 mm 0.00 in0.0 mm
04:06 AM 39.9°F4.4°C 26.7°F-2.9°C 59% 2.0 mph SE3.2 kmh SE 6.0 mph9.7 kmh 30.08 in1018.6 mb 0.00 in0.0 mm 0.00 in0.0 mm 0.00 in0.0 mm
04:01 AM 40.0°F4.4°C 26.8°F-2.9°C 59% 2.0 mph SE3.2 kmh SE 5.0 mph8.0 kmh 30.09 in1019.0 mb 0.00 in0.0 mm 0.00 in0.0 mm 0.00 in0.0 mm
03:56 AM 40.2°F4.6°C 26.6°F-3.0°C 58% 1.0 mph SSE1.6 kmh SSE 5.0 mph8.0 kmh 30.09 in1019.0 mb 0.00 in0.0 mm 0.00 in0.0 mm 0.00 in0.0 mm
03:51 AM 40.2°F4.6°C 26.6°F-3.0°C 58% 2.0 mph SSE3.2 kmh SSE 5.0 mph8.0 kmh 30.11 in1019.6 mb 0.00 in0.0 mm 0.00 in0.0 mm 0.00 in0.0 mm
03:46 AM 40.1°F4.5°C 26.5°F-3.1°C 58% 3.0 mph SE4.8 kmh SE 5.0 mph8.0 kmh 30.10 in1019.3 mb 0.00 in0.0 mm 0.00 in0.0 mm 0.00 in0.0 mm
03:41 AM 40.0°F4.4°C 26.4°F-3.1°C 58% 3.0 mph SSE4.8 kmh SSE 5.0 mph8.0 kmh 30.11 in1019.6 mb 0.00 in0.0 mm 0.00 in0.0 mm 0.00 in0.0 mm
03:36 AM 40.0°F4.4°C 26.8°F-2.9°C 59% 1.0 mph SSE1.6 kmh SSE 3.0 mph4.8 kmh 30.12 in1020.0 mb 0.00 in0.0 mm 0.00 in0.0 mm 0.00 in0.0 mm
03:31 AM 40.0°F4.4°C 26.8°F-2.9°C 59% 1.0 mph SSE1.6 kmh SSE 3.0 mph4.8 kmh 30.12 in1020.0 mb 0.00 in0.0 mm 0.00 in0.0 mm 0.00 in0.0 mm
03:26 AM 40.0°F4.4°C 26.4°F-3.1°C 58% 1.0 mph SSE1.6 kmh SSE 5.0 mph8.0 kmh 30.12 in1020.0 mb 0.00 in0.0 mm 0.00 in0.0 mm 0.00 in0.0 mm
03:21 AM 40.0°F4.4°C 26.0°F-3.3°C 57% 1.0 mph SSE1.6 kmh SSE 5.0 mph8.0 kmh 30.13 in1020.3 mb 0.00 in0.0 mm 0.00 in0.0 mm 0.00 in0.0 mm
03:16 AM 40.0°F4.4°C 26.4°F-3.1°C 58% 2.0 mph S3.2 kmh S 6.0 mph9.7 kmh 30.13 in1020.3 mb 0.00 in0.0 mm 0.00 in0.0 mm 0.00 in0.0 mm
03:11 AM 40.1°F4.5°C 26.1°F-3.3°C 57% 3.0 mph SE4.8 kmh SE 6.0 mph9.7 kmh 30.14 in1020.7 mb 0.00 in0.0 mm 0.00 in0.0 mm 0.00 in0.0 mm
03:06 AM 40.1°F4.5°C 26.1°F-3.3°C 57% 1.0 mph SSE1.6 kmh SSE 8.0 mph12.9 kmh 30.14 in1020.7 mb 0.00 in0.0 mm 0.00 in0.0 mm 0.00 in0.0 mm
03:01 AM 40.0°F4.4°C 26.0°F-3.3°C 57% 4.0 mph SSE6.4 kmh SSE 8.0 mph12.9 kmh 30.14 in1020.7 mb 0.00 in0.0 mm 0.00 in0.0 mm 0.00 in0.0 mm
02:56 AM 40.0°F4.4°C 26.0°F-3.3°C 57% 3.0 mph S4.8 kmh S 8.0 mph12.9 kmh 30.15 in1021.0 mb 0.00 in0.0 mm 0.00 in0.0 mm 0.00 in0.0 mm
02:51 AM 39.9°F4.4°C 26.3°F-3.2°C 58% 6.0 mph S9.7 kmh S 8.0 mph12.9 kmh 30.16 in1021.3 mb 0.00 in0.0 mm 0.00 in0.0 mm 0.00 in0.0 mm
02:46 AM 39.9°F4.4°C 26.3°F-3.2°C 58% 4.0 mph S6.4 kmh S 8.0 mph12.9 kmh 30.17 in1021.7 mb 0.00 in0.0 mm 0.00 in0.0 mm 0.00 in0.0 mm
02:41 AM 39.8°F4.3°C 26.2°F-3.2°C 58% 4.0 mph SSE6.4 kmh SSE 8.0 mph12.9 kmh 30.18 in1022.0 mb 0.00 in0.0 mm 0.00 in0.0 mm 0.00 in0.0 mm
02:36 AM 39.7°F4.3°C 26.6°F-3.0°C 59% 1.0 mph S1.6 kmh S 7.0 mph11.3 kmh 30.18 in1022.0 mb 0.00 in0.0 mm 0.00 in0.0 mm 0.00 in0.0 mm
02:31 AM 39.6°F4.2°C 26.5°F-3.1°C 59% 4.0 mph S6.4 kmh S 7.0 mph11.3 kmh 30.18 in1022.0 mb 0.00 in0.0 mm 0.00 in0.0 mm 0.00 in0.0 mm
02:26 AM 39.6°F4.2°C 26.5°F-3.1°C 59% 2.0 mph SSE3.2 kmh SSE 6.0 mph9.7 kmh 30.19 in1022.4 mb 0.00 in0.0 mm 0.00 in0.0 mm 0.00 in0.0 mm
02:21 AM 39.5°F4.2°C 26.4°F-3.1°C 59% 2.0 mph S3.2 kmh S 6.0 mph9.7 kmh 30.19 in1022.4 mb 0.00 in0.0 mm 0.00 in0.0 mm 0.00 in0.0 mm
02:16 AM 39.5°F4.2°C 26.4°F-3.1°C 59% 1.0 mph SSE1.6 kmh SSE 4.0 mph6.4 kmh 30.19 in1022.4 mb 0.00 in0.0 mm 0.00 in0.0 mm 0.00 in0.0 mm
02:11 AM 39.5°F4.2°C 26.4°F-3.1°C 59% Calm Calm 3.0 mph4.8 kmh 30.19 in1022.4 mb 0.00 in0.0 mm 0.00 in0.0 mm 0.00 in0.0 mm
02:06 AM 39.5°F4.2°C 26.4°F-3.1°C 59% Calm Calm 3.0 mph4.8 kmh 30.20 in1022.7 mb 0.00 in0.0 mm 0.00 in0.0 mm 0.00 in0.0 mm
02:01 AM 39.5°F4.2°C 26.4°F-3.1°C 59% Calm Calm 3.0 mph4.8 kmh 30.21 in1023.0 mb 0.00 in0.0 mm 0.00 in0.0 mm 0.00 in0.0 mm
01:56 AM 39.6°F4.2°C 26.9°F-2.8°C 60% Calm Calm 3.0 mph4.8 kmh 30.21 in1023.0 mb 0.00 in0.0 mm 0.00 in0.0 mm 0.00 in0.0 mm
01:51 AM 39.6°F4.2°C 26.5°F-3.1°C 59% Calm Calm 2.0 mph3.2 kmh 30.22 in1023.4 mb 0.00 in0.0 mm 0.00 in0.0 mm 0.00 in0.0 mm
01:46 AM 39.6°F4.2°C 26.5°F-3.1°C 59% 1.0 mph S1.6 kmh S 2.0 mph3.2 kmh 30.22 in1023.4 mb 0.00 in0.0 mm 0.00 in0.0 mm 0.00 in0.0 mm
01:41 AM 39.7°F4.3°C 26.6°F-3.0°C 59% 1.0 mph S1.6 kmh S 4.0 mph6.4 kmh 30.22 in1023.4 mb 0.00 in0.0 mm 0.00 in0.0 mm 0.00 in0.0 mm
01:36 AM 39.6°F4.2°C 26.5°F-3.1°C 59% 1.0 mph S1.6 kmh S 4.0 mph6.4 kmh 30.22 in1023.4 mb 0.00 in0.0 mm 0.00 in0.0 mm 0.00 in0.0 mm
01:31 AM 39.6°F4.2°C 26.5°F-3.1°C 59% 3.0 mph S4.8 kmh S 4.0 mph6.4 kmh 30.23 in1023.7 mb 0.00 in0.0 mm 0.00 in0.0 mm 0.00 in0.0 mm
01:26 AM 39.6°F4.2°C 26.9°F-2.8°C 60% 1.0 mph S1.6 kmh S 2.0 mph3.2 kmh 30.23 in1023.7 mb 0.00 in0.0 mm 0.00 in0.0 mm 0.00 in0.0 mm
01:21 AM 39.6°F4.2°C 26.9°F-2.8°C 60% 1.0 mph S1.6 kmh S 2.0 mph3.2 kmh 30.23 in1023.7 mb 0.00 in0.0 mm 0.00 in0.0 mm 0.00 in0.0 mm
01:16 AM 39.5°F4.2°C 26.8°F-2.9°C 60% Calm Calm 1.0 mph1.6 kmh 30.22 in1023.4 mb 0.00 in0.0 mm 0.00 in0.0 mm 0.00 in0.0 mm
01:11 AM 39.5°F4.2°C 26.8°F-2.9°C 60% 1.0 mph S1.6 kmh S 3.0 mph4.8 kmh 30.22 in1023.4 mb 0.00 in0.0 mm 0.00 in0.0 mm 0.00 in0.0 mm
01:06 AM 39.5°F4.2°C 26.8°F-2.9°C 60% Calm Calm 3.0 mph4.8 kmh 30.23 in1023.7 mb 0.00 in0.0 mm 0.00 in0.0 mm 0.00 in0.0 mm
01:01 AM 39.4°F4.1°C 26.7°F-2.9°C 60% Calm Calm 3.0 mph4.8 kmh 30.23 in1023.7 mb 0.00 in0.0 mm 0.00 in0.0 mm 0.00 in0.0 mm
12:56 AM 39.3°F4.1°C 26.6°F-3.0°C 60% 1.0 mph S1.6 kmh S 3.0 mph4.8 kmh 30.23 in1023.7 mb 0.00 in0.0 mm 0.00 in0.0 mm 0.00 in0.0 mm
12:51 AM 39.2°F4.0°C 26.9°F-2.8°C 61% 2.0 mph S3.2 kmh S 4.0 mph6.4 kmh 30.23 in1023.7 mb 0.00 in0.0 mm 0.00 in0.0 mm 0.00 in0.0 mm
12:46 AM 39.1°F3.9°C 26.8°F-2.9°C 61% 3.0 mph S4.8 kmh S 4.0 mph6.4 kmh 30.24 in1024.0 mb 0.00 in0.0 mm 0.00 in0.0 mm 0.00 in0.0 mm
12:41 AM 39.1°F3.9°C 26.8°F-2.9°C 61% 1.0 mph S1.6 kmh S 4.0 mph6.4 kmh 30.24 in1024.0 mb 0.00 in0.0 mm 0.00 in0.0 mm 0.00 in0.0 mm
12:36 AM 39.1°F3.9°C 26.8°F-2.9°C 61% 1.0 mph S1.6 kmh S 4.0 mph6.4 kmh 30.23 in1023.7 mb 0.00 in0.0 mm 0.00 in0.0 mm 0.00 in0.0 mm
12:31 AM 39.0°F3.9°C 26.7°F-2.9°C 61% 2.0 mph S3.2 kmh S 3.0 mph4.8 kmh 30.23 in1023.7 mb 0.00 in0.0 mm 0.00 in0.0 mm 0.00 in0.0 mm
12:26 AM 38.9°F3.8°C 26.6°F-3.0°C 61% Calm Calm 3.0 mph4.8 kmh 30.23 in1023.7 mb 0.00 in0.0 mm 0.00 in0.0 mm 0.00 in0.0 mm
12:21 AM 38.9°F3.8°C 26.6°F-3.0°C 61% 1.0 mph S1.6 kmh S 3.0 mph4.8 kmh 30.24 in1024.0 mb 0.00 in0.0 mm 0.00 in0.0 mm 0.00 in0.0 mm
12:16 AM 38.9°F3.8°C 26.6°F-3.0°C 61% Calm Calm -- 30.24 in1024.0 mb 0.00 in0.0 mm 0.00 in0.0 mm 0.00 in0.0 mm
12:11 AM 38.9°F3.8°C 26.6°F-3.0°C 61% Calm Calm 4.0 mph6.4 kmh 30.24 in1024.0 mb 0.00 in0.0 mm 0.00 in0.0 mm 0.00 in0.0 mm
12:06 AM 38.9°F3.8°C 26.6°F-3.0°C 61% 2.0 mph S3.2 kmh S 4.0 mph6.4 kmh 30.24 in1024.0 mb 0.00 in0.0 mm 0.00 in0.0 mm 0.00 in0.0 mm
12:01 AM 38.8°F3.8°C 26.5°F-3.1°C 61% Calm Calm 4.0 mph6.4 kmh 30.25 in1024.4 mb 0.00 in0.0 mm 0.00 in0.0 mm 0.00 in0.0 mm